Time;durP1;ratioP1;P1;durP2;ratioP2;P2;SDS_P1;SDS_P2;PMS_P1;PMS_P2;Temp;Humidity;BMP_temperature;BMP_pressure;BME280_temperature;BME280_humidity;BME280_pressure;Samples;Min_cycle;Max_cycle;Signal;HPM_P1;HPM_P2
2023/08/25 00:01:24;;;;;;;13.45;10.10;;;19.90;99.90;;;;;;5054763;28;20041;-78
2023/08/25 00:03:49;;;;;;;11.60;9.77;;;19.80;99.90;;;;;;5055095;28;20074;-78
2023/08/25 00:06:15;;;;;;;14.05;10.35;;;19.80;99.90;;;;;;5061305;28;20041;-78
2023/08/25 00:08:40;;;;;;;13.73;10.13;;;19.80;99.90;;;;;;5070152;28;20493;-78
2023/08/25 00:11:06;;;;;;;12.95;10.18;;;19.80;99.90;;;;;;5048940;28;20036;-78
2023/08/25 00:13:35;;;;;;;12.23;10.18;;;19.80;99.90;;;;;;5044566;28;20432;-79
2023/08/25 00:16:03;;;;;;;13.00;10.85;;;19.80;99.90;;;;;;5051483;28;20048;-79
2023/08/25 00:18:29;;;;;;;13.00;10.98;;;19.90;99.90;;;;;;5071244;28;20067;-79
2023/08/25 00:20:54;;;;;;;15.40;10.90;;;19.90;99.90;;;;;;5059879;28;20071;-79
2023/08/25 00:23:20;;;;;;;12.95;10.68;;;19.90;99.90;;;;;;5058780;28;20036;-79
2023/08/25 00:25:46;;;;;;;12.52;11.23;;;19.80;99.90;;;;;;5073433;28;20037;-78
2023/08/25 00:28:12;;;;;;;13.63;9.98;;;19.90;99.90;;;;;;5070953;28;20119;-78
2023/08/25 00:30:37;;;;;;;14.35;10.88;;;19.90;99.90;;;;;;5061107;28;20124;-78
2023/08/25 00:33:03;;;;;;;12.57;10.98;;;19.80;99.90;;;;;;5075131;28;20037;-79
2023/08/25 00:35:29;;;;;;;14.30;10.55;;;19.80;99.90;;;;;;5072270;28;20489;-78
2023/08/25 00:37:54;;;;;;;17.42;11.10;;;19.80;99.90;;;;;;5076627;28;20040;-78
2023/08/25 00:40:20;;;;;;;14.30;11.18;;;19.80;99.90;;;;;;5066505;28;20406;-79
2023/08/25 00:42:45;;;;;;;15.32;11.52;;;19.90;99.90;;;;;;5074289;28;20062;-79
2023/08/25 00:45:11;;;;;;;15.13;11.73;;;19.70;99.90;;;;;;5075263;28;20511;-79
2023/08/25 00:47:37;;;;;;;14.07;11.20;;;19.80;99.90;;;;;;5075289;28;20564;-78
2023/08/25 00:50:03;;;;;;;15.70;11.43;;;19.80;99.90;;;;;;5070404;28;20033;-77
2023/08/25 00:52:29;;;;;;;13.55;11.13;;;19.80;99.90;;;;;;5047790;28;20036;-79
2023/08/25 00:54:56;;;;;;;14.80;12.27;;;19.70;99.90;;;;;;5054719;28;20037;-80
2023/08/25 00:57:22;;;;;;;14.13;11.43;;;19.70;99.90;;;;;;5049105;28;20109;-80
2023/08/25 00:59:50;;;;;;;16.15;12.52;;;19.70;99.90;;;;;;5059236;28;20068;-79
2023/08/25 01:02:16;;;;;;;15.40;12.75;;;19.70;99.90;;;;;;5046207;28;20041;-79
2023/08/25 01:04:41;;;;;;;15.18;12.55;;;19.70;99.90;;;;;;5051138;28;20052;-78
2023/08/25 01:07:07;;;;;;;14.70;12.98;;;19.60;99.90;;;;;;5052985;28;20041;-78
2023/08/25 01:09:33;;;;;;;15.55;13.55;;;19.60;99.90;;;;;;5039427;28;20044;-78
2023/08/25 01:12:09;;;;;;;14.57;13.07;;;19.70;99.90;;;;;;5053584;28;20044;-79
2023/08/25 01:15:13;;;;;;;16.77;13.45;;;19.70;99.90;;;;;;5054041;28;20135;-79
2023/08/25 01:17:57;;;;;;;14.52;12.38;;;19.70;99.90;;;;;;5036935;28;20046;-80
2023/08/25 01:20:23;;;;;;;17.63;14.38;;;19.70;99.90;;;;;;5062111;28;20044;-80
2023/08/25 01:23:17;;;;;;;16.98;14.27;;;19.70;99.90;;;;;;5057092;28;20052;-80
2023/08/25 01:25:44;;;;;;;16.05;14.30;;;19.70;99.90;;;;;;5037074;28;20045;-78
2023/08/25 01:28:09;;;;;;;16.20;13.85;;;19.70;99.90;;;;;;5035011;28;20053;-78
2023/08/25 01:30:35;;;;;;;18.45;14.38;;;19.70;99.90;;;;;;5059949;28;20045;-78
2023/08/25 01:33:05;;;;;;;16.85;14.90;;;19.70;99.90;;;;;;5061983;28;20033;-78
2023/08/25 01:35:45;;;;;;;19.42;16.67;;;19.70;99.90;;;;;;5054522;28;20378;-79
2023/08/25 01:38:23;;;;;;;17.48;15.55;;;19.60;99.90;;;;;;5032725;28;20405;-78
2023/08/25 01:41:01;;;;;;;18.70;16.83;;;19.60;99.90;;;;;;5033799;28;20037;-79
2023/08/25 01:43:32;;;;;;;18.52;16.58;;;19.50;99.90;;;;;;5069171;28;20036;-78
2023/08/25 01:45:59;;;;;;;17.60;15.80;;;19.50;99.90;;;;;;5064387;28;20508;-78
2023/08/25 01:48:26;;;;;;;19.45;16.50;;;19.50;99.90;;;;;;5064814;28;20078;-78
2023/08/25 01:50:52;;;;;;;21.33;16.40;;;19.50;99.90;;;;;;5051534;28;20048;-79
2023/08/25 01:53:19;;;;;;;18.55;15.15;;;19.50;99.90;;;;;;5050545;28;20128;-79
2023/08/25 01:55:44;;;;;;;18.50;15.88;;;19.50;99.90;;;;;;5035154;28;20041;-79
2023/08/25 01:58:10;;;;;;;17.90;15.63;;;19.50;99.90;;;;;;5044392;28;20037;-79
2023/08/25 02:00:35;;;;;;;19.80;17.17;;;19.50;99.90;;;;;;5042411;28;20041;-78
2023/08/25 02:03:01;;;;;;;19.02;16.75;;;19.50;99.90;;;;;;5057349;28;20033;-78
2023/08/25 02:05:27;;;;;;;18.85;16.35;;;19.50;99.90;;;;;;5044989;28;20552;-78
2023/08/25 02:07:53;;;;;;;18.52;16.65;;;19.50;99.90;;;;;;5070039;28;20041;-79
2023/08/25 02:10:18;;;;;;;20.45;16.13;;;19.50;99.90;;;;;;5060951;28;20497;-77
2023/08/25 02:12:44;;;;;;;17.88;15.98;;;19.50;99.90;;;;;;5063752;28;20037;-79
2023/08/25 02:15:09;;;;;;;18.67;16.67;;;19.50;99.90;;;;;;5052160;28;20048;-77
2023/08/25 02:17:35;;;;;;;18.67;16.75;;;19.50;99.90;;;;;;5057329;28;20044;-78
2023/08/25 02:20:01;;;;;;;21.20;16.92;;;19.40;99.90;;;;;;5045708;28;20040;-78
2023/08/25 02:22:26;;;;;;;19.77;17.77;;;19.50;99.90;;;;;;5061692;28;20111;-79
2023/08/25 02:24:52;;;;;;;18.73;16.65;;;19.50;99.90;;;;;;5051131;28;20098;-78
2023/08/25 02:27:18;;;;;;;18.60;16.45;;;19.50;99.90;;;;;;5051835;28;20390;-78
2023/08/25 02:29:44;;;;;;;20.50;17.40;;;19.50;99.90;;;;;;5051145;28;20049;-78
2023/08/25 02:32:09;;;;;;;21.70;17.60;;;19.50;99.90;;;;;;5036583;28;20043;-77
2023/08/25 02:34:35;;;;;;;19.20;17.20;;;19.50;99.90;;;;;;5043622;28;20041;-79
2023/08/25 02:37:01;;;;;;;20.10;17.95;;;19.50;99.90;;;;;;5064093;28;20404;-78
2023/08/25 02:39:26;;;;;;;19.23;16.83;;;19.40;99.90;;;;;;5044975;28;20033;-79
2023/08/25 02:41:52;;;;;;;20.25;17.60;;;19.50;99.90;;;;;;5063277;28;20040;-79
2023/08/25 02:44:17;;;;;;;19.23;17.23;;;19.40;99.90;;;;;;5056421;28;20045;-78
2023/08/25 02:46:43;;;;;;;20.45;18.33;;;19.50;99.90;;;;;;5052924;28;20127;-78
2023/08/25 02:49:08;;;;;;;22.35;17.88;;;19.40;99.90;;;;;;5056178;28;20492;-78
2023/08/25 02:51:34;;;;;;;21.35;19.13;;;19.40;99.90;;;;;;5067221;28;20044;-78
2023/08/25 02:53:59;;;;;;;21.50;19.23;;;19.40;99.90;;;;;;5045081;28;20127;-79
2023/08/25 02:56:25;;;;;;;22.20;19.90;;;19.40;99.90;;;;;;5051970;28;20040;-79
2023/08/25 02:58:51;;;;;;;23.80;21.25;;;19.30;99.90;;;;;;5037576;28;20068;-78
2023/08/25 03:01:16;;;;;;;25.38;21.38;;;19.40;99.90;;;;;;5050881;28;20033;-78
2023/08/25 03:03:43;;;;;;;24.20;21.63;;;19.30;99.90;;;;;;5035376;28;20044;-79
2023/08/25 03:06:09;;;;;;;27.60;23.27;;;19.30;99.90;;;;;;5049628;28;20037;-78
2023/08/25 03:08:35;;;;;;;25.52;22.27;;;19.20;99.90;;;;;;5053313;28;20036;-78
2023/08/25 03:11:03;;;;;;;25.25;22.55;;;19.20;99.90;;;;;;5045284;28;20036;-79
2023/08/25 03:13:30;;;;;;;25.10;21.33;;;19.20;99.90;;;;;;5055782;28;20045;-79
2023/08/25 03:15:55;;;;;;;25.80;23.15;;;19.20;99.90;;;;;;5052967;28;20040;-79
2023/08/25 03:18:21;;;;;;;26.00;23.05;;;19.20;99.90;;;;;;5056740;28;20093;-79
2023/08/25 03:20:53;;;;;;;26.90;24.20;;;19.20;99.90;;;;;;5050024;28;20068;-79
2023/08/25 03:23:20;;;;;;;25.80;23.10;;;19.20;99.90;;;;;;5065910;28;20102;-79
2023/08/25 03:25:45;;;;;;;25.45;22.70;;;19.20;99.90;;;;;;5038236;28;20037;-78
2023/08/25 03:28:11;;;;;;;25.65;22.95;;;19.10;99.90;;;;;;5071611;28;20109;-79
2023/08/25 03:30:37;;;;;;;27.15;23.25;;;19.10;99.90;;;;;;5052740;28;20501;-78
2023/08/25 03:33:06;;;;;;;29.27;25.33;;;19.20;99.90;;;;;;5081981;28;20102;-79
2023/08/25 03:35:38;;;;;;;25.92;23.10;;;19.20;99.90;;;;;;5062531;28;20405;-79
2023/08/25 03:38:04;;;;;;;26.27;23.48;;;19.10;99.90;;;;;;5059906;28;20036;-79
2023/08/25 03:40:30;;;;;;;22.83;20.42;;;19.10;99.90;;;;;;5056502;28;20052;-79
2023/08/25 03:42:56;;;;;;;25.40;22.80;;;19.10;99.90;;;;;;5066702;28;20040;-79
2023/08/25 03:45:22;;;;;;;27.33;23.83;;;19.10;99.90;;;;;;5083145;28;20040;-79
2023/08/25 03:47:47;;;;;;;29.60;26.38;;;19.10;99.90;;;;;;5047497;28;20045;-79
2023/08/25 03:50:13;;;;;;;27.50;24.60;;;19.10;99.90;;;;;;5073741;28;20040;-79
2023/08/25 03:52:39;;;;;;;29.63;26.38;;;19.10;99.90;;;;;;5074039;28;20094;-78
2023/08/25 03:55:04;;;;;;;28.52;25.48;;;19.10;99.90;;;;;;5059715;28;20045;-77
2023/08/25 03:57:30;;;;;;;30.52;26.05;;;19.20;99.90;;;;;;5064351;28;20040;-78
2023/08/25 03:59:56;;;;;;;29.50;26.35;;;19.10;99.90;;;;;;5038800;28;20217;-78
2023/08/25 04:02:21;;;;;;;26.48;23.58;;;19.10;99.90;;;;;;5057289;28;20488;-79
2023/08/25 04:04:47;;;;;;;27.55;24.67;;;19.10;99.90;;;;;;5059676;28;20468;-79
2023/08/25 04:07:15;;;;;;;26.23;23.42;;;19.00;99.90;;;;;;5059287;28;20033;-78
2023/08/25 04:09:41;;;;;;;28.40;25.00;;;19.00;99.90;;;;;;5069267;28;20041;-78
2023/08/25 04:12:07;;;;;;;29.55;26.42;;;19.00;99.90;;;;;;5051432;28;20104;-79
2023/08/25 04:14:33;;;;;;;30.17;26.88;;;19.00;99.90;;;;;;5062729;28;20033;-79
2023/08/25 04:16:59;;;;;;;30.17;26.98;;;19.10;99.90;;;;;;5062673;28;20090;-78
2023/08/25 04:19:25;;;;;;;30.65;27.45;;;19.10;99.90;;;;;;5078244;28;20032;-78
2023/08/25 04:21:50;;;;;;;31.30;27.90;;;19.10;99.90;;;;;;5054745;28;20056;-78
2023/08/25 04:24:17;;;;;;;30.40;27.23;;;19.10;99.90;;;;;;5049902;28;20072;-79
2023/08/25 04:26:42;;;;;;;30.98;27.25;;;19.10;99.90;;;;;;5035915;28;20064;-78
2023/08/25 04:29:09;;;;;;;32.50;28.73;;;19.20;99.90;;;;;;5056666;28;20041;-78
2023/08/25 04:31:35;;;;;;;31.20;27.80;;;19.20;99.90;;;;;;5038005;28;20485;-78
2023/08/25 04:34:01;;;;;;;30.73;27.00;;;19.20;99.90;;;;;;5070413;28;20040;-78
2023/08/25 04:36:26;;;;;;;30.20;26.95;;;19.10;99.90;;;;;;5044729;28;20043;-78
2023/08/25 04:38:52;;;;;;;29.70;26.80;;;19.10;99.90;;;;;;5066046;28;20366;-78
2023/08/25 04:41:18;;;;;;;30.77;27.63;;;19.10;99.90;;;;;;5054005;28;20032;-78
2023/08/25 04:43:44;;;;;;;31.27;27.00;;;19.20;99.90;;;;;;5070383;28;20040;-78
2023/08/25 04:46:10;;;;;;;31.25;27.77;;;19.10;99.90;;;;;;5067993;28;20044;-78
2023/08/25 04:48:36;;;;;;;31.77;28.48;;;19.10;99.90;;;;;;5068852;28;20051;-78
2023/08/25 04:51:02;;;;;;;30.65;27.35;;;19.20;99.90;;;;;;5062230;28;20477;-78
2023/08/25 04:53:28;;;;;;;33.35;28.33;;;19.20;99.90;;;;;;5072864;28;20115;-78
2023/08/25 04:55:53;;;;;;;32.42;29.02;;;19.10;99.90;;;;;;5056133;28;20512;-78
2023/08/25 04:58:19;;;;;;;32.25;28.75;;;19.10;99.90;;;;;;5052812;28;20121;-78
2023/08/25 05:00:47;;;;;;;33.25;29.77;;;19.20;99.90;;;;;;5039231;28;20029;-79
2023/08/25 05:03:12;;;;;;;35.65;31.85;;;19.30;99.90;;;;;;5072257;28;20036;-78
2023/08/25 05:05:38;;;;;;;36.20;31.13;;;19.20;99.90;;;;;;5047583;28;20041;-78
2023/08/25 05:08:04;;;;;;;35.65;30.95;;;19.10;99.90;;;;;;5066806;28;20036;-79
2023/08/25 05:10:30;;;;;;;35.00;31.20;;;19.10;99.90;;;;;;5051741;28;20041;-78
2023/08/25 05:12:55;;;;;;;37.10;32.15;;;19.20;99.90;;;;;;5063028;28;20035;-78
2023/08/25 05:15:21;;;;;;;36.88;30.35;;;19.30;99.90;;;;;;5048921;28;20465;-78
2023/08/25 05:17:47;;;;;;;34.88;30.90;;;19.20;99.90;;;;;;5035857;28;20038;-78
2023/08/25 05:20:17;;;;;;;35.70;31.70;;;19.20;99.90;;;;;;5038381;28;20490;-78
2023/08/25 05:22:43;;;;;;;36.70;32.72;;;19.20;99.90;;;;;;5038448;28;20048;-78
2023/08/25 05:25:08;;;;;;;38.25;32.05;;;19.30;99.90;;;;;;5063084;28;20405;-78
2023/08/25 05:27:34;;;;;;;38.85;33.38;;;19.30;99.90;;;;;;5055965;28;20060;-78
2023/08/25 05:29:59;;;;;;;35.78;31.92;;;19.40;99.90;;;;;;5053534;28;20044;-78
2023/08/25 05:32:25;;;;;;;37.28;31.77;;;19.30;99.90;;;;;;5037011;28;20471;-78
2023/08/25 05:34:50;;;;;;;40.00;33.30;;;19.30;99.90;;;;;;5034412;28;20041;-77
2023/08/25 05:37:16;;;;;;;39.63;33.83;;;19.30;99.90;;;;;;5045427;28;20124;-72
2023/08/25 05:39:42;;;;;;;40.65;33.13;;;19.30;99.90;;;;;;5043806;28;20401;-80
2023/08/25 05:42:08;;;;;;;42.97;33.33;;;19.40;99.90;;;;;;5050774;28;20032;-79
2023/08/25 05:44:35;;;;;;;38.42;33.72;;;19.30;99.90;;;;;;5033191;28;20045;-79
2023/08/25 05:47:00;;;;;;;39.10;33.28;;;19.40;99.90;;;;;;5054932;28;20047;-79
2023/08/25 05:49:26;;;;;;;44.95;35.90;;;19.30;99.90;;;;;;5049125;28;20120;-79
2023/08/25 05:51:52;;;;;;;41.67;34.55;;;19.30;99.90;;;;;;5068839;28;20067;-79
2023/08/25 05:54:17;;;;;;;41.63;35.55;;;19.30;99.90;;;;;;5041763;28;20041;-79
2023/08/25 05:56:44;;;;;;;43.28;35.50;;;19.30;99.90;;;;;;5055161;28;20041;-79
2023/08/25 05:59:09;;;;;;;37.65;31.38;;;19.40;99.90;;;;;;5051443;28;20440;-79
2023/08/25 06:01:35;;;;;;;41.33;35.10;;;19.20;99.90;;;;;;5042341;28;20033;-79
2023/08/25 06:04:01;;;;;;;41.80;34.35;;;19.30;99.90;;;;;;5064594;28;20463;-79
2023/08/25 06:06:27;;;;;;;41.78;35.65;;;19.30;99.90;;;;;;5053834;28;20041;-79
2023/08/25 06:08:54;;;;;;;46.42;35.08;;;19.40;99.90;;;;;;5074020;28;20473;-79
2023/08/25 06:11:19;;;;;;;42.22;34.53;;;19.30;99.90;;;;;;5051513;28;20155;-79
2023/08/25 06:13:45;;;;;;;40.65;32.88;;;19.40;99.90;;;;;;5051167;28;20116;-79
2023/08/25 06:16:10;;;;;;;42.13;34.70;;;19.50;99.90;;;;;;5077435;28;20503;-79
2023/08/25 06:18:36;;;;;;;41.40;34.55;;;19.50;99.90;;;;;;5058188;28;20068;-79
2023/08/25 06:21:02;;;;;;;45.60;33.88;;;19.60;99.90;;;;;;5070311;28;20028;-79
2023/08/25 06:23:28;;;;;;;46.75;36.78;;;19.70;99.90;;;;;;5055352;28;20029;-79
2023/08/25 06:25:54;;;;;;;44.97;35.75;;;19.60;99.90;;;;;;5053328;28;20101;-79
2023/08/25 06:28:20;;;;;;;44.67;34.63;;;19.60;99.90;;;;;;5022630;28;20053;-79
2023/08/25 06:30:49;;;;;;;44.42;35.72;;;19.70;99.90;;;;;;5043560;28;20101;-79
2023/08/25 06:33:15;;;;;;;44.50;35.63;;;19.70;99.90;;;;;;5062197;28;20072;-79
2023/08/25 06:35:41;;;;;;;46.35;37.95;;;19.80;99.90;;;;;;5051299;28;20209;-79
2023/08/25 06:38:06;;;;;;;45.30;36.42;;;19.70;99.90;;;;;;5040668;28;20044;-79
2023/08/25 06:40:35;;;;;;;44.65;34.90;;;19.80;99.90;;;;;;5063212;28;20037;-79
2023/08/25 06:43:01;;;;;;;44.15;35.22;;;19.80;99.90;;;;;;5059672;28;20064;-79
2023/08/25 06:45:27;;;;;;;47.83;36.95;;;19.80;99.90;;;;;;5047233;28;20047;-79
2023/08/25 06:47:57;;;;;;;50.70;38.38;;;19.90;99.90;;;;;;5040184;28;20041;-80
2023/08/25 06:50:23;;;;;;;46.30;35.13;;;19.90;99.90;;;;;;5050296;28;20091;-80
2023/08/25 06:52:49;;;;;;;46.83;35.97;;;19.90;99.90;;;;;;5034655;28;20036;-80
2023/08/25 06:55:19;;;;;;;45.67;36.35;;;20.00;99.90;;;;;;5034442;28;20085;-80
2023/08/25 06:57:46;;;;;;;45.85;35.92;;;20.00;99.90;;;;;;5049055;28;20029;-80
2023/08/25 07:00:13;;;;;;;49.78;37.78;;;20.00;99.90;;;;;;5029089;28;20039;-80
2023/08/25 07:02:40;;;;;;;47.13;37.03;;;20.00;99.90;;;;;;5031266;28;20042;-80
2023/08/25 07:05:07;;;;;;;43.90;33.53;;;20.00;99.90;;;;;;5033129;28;20042;-80
2023/08/25 07:07:33;;;;;;;48.35;36.10;;;20.10;99.90;;;;;;5071062;28;20037;-81
2023/08/25 07:09:59;;;;;;;50.78;39.08;;;20.10;99.90;;;;;;5053559;28;20041;-81
2023/08/25 07:12:24;;;;;;;52.47;38.15;;;20.20;99.90;;;;;;5045356;28;20106;-80
2023/08/25 07:14:50;;;;;;;49.47;37.00;;;20.20;99.90;;;;;;5051449;28;20037;-80
2023/08/25 07:17:16;;;;;;;47.97;36.92;;;20.20;99.90;;;;;;5049554;28;20079;-80
2023/08/25 07:19:42;;;;;;;36.15;30.75;;;20.20;99.90;;;;;;5029782;28;20053;-80
2023/08/25 07:22:08;;;;;;;42.22;33.75;;;20.10;99.90;;;;;;5037211;28;20075;-80
2023/08/25 07:24:34;;;;;;;48.05;37.05;;;20.10;99.90;;;;;;5051428;28;20052;-80
2023/08/25 07:27:00;;;;;;;47.35;36.00;;;20.10;99.90;;;;;;5038670;28;20567;-76
2023/08/25 07:29:25;;;;;;;39.80;32.35;;;20.10;99.90;;;;;;5036384;28;20132;-76
2023/08/25 07:31:52;;;;;;;38.80;32.00;;;20.30;99.90;;;;;;5037153;28;20457;-77
2023/08/25 07:34:18;;;;;;;43.70;34.00;;;20.20;99.90;;;;;;5050352;28;20041;-77
2023/08/25 07:36:43;;;;;;;40.78;33.53;;;20.30;99.90;;;;;;5037400;28;20067;-77
2023/08/25 07:39:09;;;;;;;45.67;35.08;;;20.30;99.90;;;;;;5036121;28;20095;-77
2023/08/25 07:41:34;;;;;;;42.20;33.70;;;20.50;99.90;;;;;;5024767;28;20045;-76
2023/08/25 07:44:02;;;;;;;43.13;33.22;;;20.50;99.90;;;;;;5071285;28;20044;-76
2023/08/25 07:46:27;;;;;;;45.10;35.30;;;20.60;99.90;;;;;;5039185;28;20489;-79
2023/08/25 07:48:53;;;;;;;45.33;36.42;;;20.60;99.90;;;;;;5032759;28;20102;-77
2023/08/25 07:51:18;;;;;;;50.80;37.03;;;20.50;99.90;;;;;;5016919;28;20431;-76
2023/08/25 07:53:44;;;;;;;45.50;36.10;;;20.50;99.90;;;;;;5034746;28;20036;-76
2023/08/25 07:56:10;;;;;;;46.30;35.83;;;20.50;99.90;;;;;;5032153;28;20068;-76
2023/08/25 07:58:36;;;;;;;46.13;35.13;;;20.50;99.90;;;;;;5054284;28;20036;-76
2023/08/25 08:01:02;;;;;;;43.08;35.08;;;20.40;99.90;;;;;;5036379;28;21082;-74
2023/08/25 08:03:29;;;;;;;49.25;38.63;;;20.50;99.90;;;;;;5050478;28;20047;-75
2023/08/25 08:05:54;;;;;;;44.30;36.85;;;20.50;99.90;;;;;;5070158;28;20045;-75
2023/08/25 08:08:20;;;;;;;48.95;37.22;;;20.50;99.90;;;;;;5034483;28;20533;-75
2023/08/25 08:10:45;;;;;;;40.53;33.33;;;20.60;99.90;;;;;;5034154;28;20042;-75
2023/08/25 08:13:11;;;;;;;43.63;36.10;;;20.60;99.90;;;;;;5046675;28;20033;-72
2023/08/25 08:15:38;;;;;;;39.05;32.40;;;20.60;99.90;;;;;;5053380;28;20127;-72
2023/08/25 08:18:04;;;;;;;41.97;34.10;;;20.70;99.90;;;;;;5048244;28;20036;-78
2023/08/25 08:20:30;;;;;;;47.33;35.13;;;20.70;99.90;;;;;;5032168;28;20048;-78
2023/08/25 08:22:56;;;;;;;48.00;36.72;;;20.80;99.90;;;;;;5051650;28;20448;-78
2023/08/25 08:25:21;;;;;;;44.80;36.05;;;20.80;99.90;;;;;;5055551;28;20051;-77
2023/08/25 08:27:47;;;;;;;46.75;35.10;;;20.90;99.90;;;;;;5038959;28;20560;-77
2023/08/25 08:30:16;;;;;;;46.08;35.35;;;20.90;99.90;;;;;;5054324;28;20048;-77
2023/08/25 08:32:42;;;;;;;43.00;33.83;;;21.00;99.90;;;;;;5053541;28;20049;-77
2023/08/25 08:35:08;;;;;;;46.88;33.30;;;21.00;99.90;;;;;;5045327;28;20048;-77
2023/08/25 08:37:35;;;;;;;41.03;32.10;;;21.10;99.90;;;;;;5069860;28;20070;-78
2023/08/25 08:40:00;;;;;;;45.15;33.53;;;21.20;99.90;;;;;;5033487;28;20124;-77
2023/08/25 08:42:28;;;;;;;40.95;30.95;;;21.20;99.90;;;;;;5057542;28;20128;-77
2023/08/25 08:44:58;;;;;;;41.15;32.30;;;21.20;99.90;;;;;;5034720;28;20041;-78
2023/08/25 08:47:23;;;;;;;41.58;31.73;;;21.20;99.90;;;;;;5052138;28;20056;-77
2023/08/25 08:49:50;;;;;;;38.08;29.83;;;21.20;99.90;;;;;;5047181;28;20382;-77
2023/08/25 08:52:17;;;;;;;34.88;30.75;;;21.10;99.90;;;;;;5047654;28;20037;-78
2023/08/25 08:54:44;;;;;;;41.03;30.95;;;21.10;99.90;;;;;;5047988;28;20076;-77
2023/08/25 08:57:11;;;;;;;35.30;30.00;;;21.10;99.90;;;;;;5055207;28;20041;-77
2023/08/25 08:59:37;;;;;;;38.35;30.65;;;21.10;99.90;;;;;;5069696;28;20075;-77
2023/08/25 09:02:05;;;;;;;39.33;31.17;;;21.10;99.90;;;;;;5060396;28;20041;-77
2023/08/25 09:04:33;;;;;;;40.25;31.00;;;21.00;99.90;;;;;;5050454;28;20045;-77
2023/08/25 09:07:01;;;;;;;38.38;30.40;;;21.00;99.90;;;;;;5040257;28;20056;-78
2023/08/25 09:09:26;;;;;;;33.20;27.08;;;21.00;99.90;;;;;;5072041;28;20040;-77
2023/08/25 09:11:52;;;;;;;38.10;30.48;;;21.00;99.90;;;;;;5048541;28;20385;-78
2023/08/25 09:14:25;;;;;;;39.33;30.65;;;20.80;99.90;;;;;;5053525;28;20048;-78
2023/08/25 09:17:06;;;;;;;41.20;32.50;;;20.80;99.90;;;;;;5034501;28;20032;-77
2023/08/25 09:19:33;;;;;;;38.63;29.65;;;20.90;99.90;;;;;;5055358;28;20093;-78
2023/08/25 09:21:59;;;;;;;37.88;29.95;;;20.90;99.90;;;;;;5031137;28;20432;-74
2023/08/25 09:24:25;;;;;;;37.58;30.25;;;20.90;99.90;;;;;;5070079;28;20040;-76
2023/08/25 09:26:51;;;;;;;37.85;30.70;;;20.90;99.90;;;;;;5035077;28;20060;-75
2023/08/25 09:29:17;;;;;;;43.22;31.17;;;20.90;99.90;;;;;;5057545;28;20048;-76
2023/08/25 09:31:44;;;;;;;45.63;30.90;;;20.90;99.90;;;;;;5072944;28;20127;-76
2023/08/25 09:34:15;;;;;;;34.50;29.55;;;21.00;99.90;;;;;;5072848;28;20051;-76
2023/08/25 09:36:55;;;;;;;38.10;29.20;;;21.00;99.90;;;;;;5064075;28;20443;-77
2023/08/25 09:39:21;;;;;;;34.75;28.15;;;21.10;99.90;;;;;;5056134;28;20025;-76
2023/08/25 09:41:48;;;;;;;35.60;28.85;;;21.10;99.90;;;;;;5047937;28;20036;-76
2023/08/25 09:44:14;;;;;;;35.80;27.13;;;21.10;99.90;;;;;;5072779;28;20083;-76
2023/08/25 09:46:39;;;;;;;30.13;24.80;;;21.10;99.90;;;;;;5045610;28;20060;-76
2023/08/25 09:49:07;;;;;;;31.98;24.77;;;21.10;99.90;;;;;;5052670;28;20041;-77
2023/08/25 09:51:59;;;;;;;31.00;24.45;;;21.10;99.90;;;;;;5076972;28;20040;-76
2023/08/25 09:54:26;;;;;;;33.40;24.48;;;21.10;99.90;;;;;;5067670;28;20516;-76
2023/08/25 09:56:53;;;;;;;32.00;24.67;;;21.10;99.90;;;;;;5042369;28;20060;-76
2023/08/25 09:59:19;;;;;;;30.60;22.45;;;21.20;99.90;;;;;;5043681;28;20126;-76
2023/08/25 10:01:45;;;;;;;31.33;22.35;;;21.20;99.90;;;;;;5046324;28;20068;-76
2023/08/25 10:04:12;;;;;;;29.85;22.10;;;21.20;99.90;;;;;;5052743;28;20562;-76
2023/08/25 10:06:39;;;;;;;30.02;21.92;;;21.20;99.90;;;;;;5053278;28;20047;-77
2023/08/25 10:09:06;;;;;;;29.10;20.83;;;21.20;99.90;;;;;;5067975;28;20503;-76
2023/08/25 10:11:45;;;;;;;32.10;22.45;;;21.20;99.90;;;;;;5070277;28;20051;-77
2023/08/25 10:14:12;;;;;;;32.40;24.85;;;21.40;99.90;;;;;;5055810;28;20052;-77
2023/08/25 10:16:50;;;;;;;29.67;23.80;;;21.40;99.90;;;;;;5060922;28;20039;-76
2023/08/25 10:19:26;;;;;;;28.92;23.50;;;21.40;99.90;;;;;;5050538;28;20033;-77
2023/08/25 10:21:53;;;;;;;29.63;22.55;;;21.40;99.90;;;;;;5052189;28;20036;-76
2023/08/25 10:24:20;;;;;;;31.00;22.30;;;21.40;99.90;;;;;;5053189;28;20044;-76
2023/08/25 10:26:47;;;;;;;27.17;20.80;;;21.50;99.90;;;;;;5051796;28;20451;-76
2023/08/25 10:29:16;;;;;;;28.02;20.52;;;21.50;99.90;;;;;;5046356;28;20074;-77
2023/08/25 10:31:50;;;;;;;28.73;20.20;;;21.70;99.90;;;;;;5041058;28;20029;-77
2023/08/25 10:34:36;;;;;;;28.08;19.65;;;21.70;99.90;;;;;;5050362;28;20496;-77
2023/08/25 10:37:07;;;;;;;30.58;20.40;;;21.60;99.90;;;;;;5055451;28;20039;-77
2023/08/25 10:39:44;;;;;;;26.98;18.77;;;21.70;99.90;;;;;;5072066;28;20036;-77
2023/08/25 10:42:10;;;;;;;23.73;20.35;;;21.70;99.90;;;;;;5072231;28;20127;-77
2023/08/25 10:44:42;;;;;;;25.02;19.38;;;21.70;99.90;;;;;;5071977;28;20560;-77
2023/08/25 10:47:08;;;;;;;24.15;18.92;;;21.60;99.90;;;;;;5071761;28;20040;-77
2023/08/25 10:49:41;;;;;;;30.02;19.05;;;21.50;99.90;;;;;;5055256;28;20468;-77
2023/08/25 10:52:18;;;;;;;25.23;19.05;;;21.50;99.90;;;;;;5055071;28;20044;-77
2023/08/25 10:54:45;;;;;;;24.58;20.13;;;21.40;99.90;;;;;;5055240;28;20051;-77
2023/08/25 10:57:39;;;;;;;23.67;19.08;;;21.40;99.90;;;;;;5055296;28;20128;-77
2023/08/25 11:00:25;;;;;;;24.85;18.27;;;21.30;99.90;;;;;;5071362;28;20048;-77
2023/08/25 11:02:51;;;;;;;22.98;16.95;;;21.40;99.90;;;;;;5054918;28;20079;-77
2023/08/25 11:05:26;;;;;;;23.67;17.88;;;21.40;99.90;;;;;;5071959;28;20436;-77
2023/08/25 11:07:53;;;;;;;24.50;19.63;;;21.40;99.90;;;;;;5054996;28;20040;-77
2023/08/25 11:10:22;;;;;;;28.08;21.60;;;21.30;99.90;;;;;;5071785;28;20105;-77
2023/08/25 11:12:52;;;;;;;26.30;21.80;;;21.30;99.90;;;;;;5071648;28;20409;-77
2023/08/25 11:15:18;;;;;;;30.73;22.77;;;21.30;99.90;;;;;;5054859;28;20052;-77
2023/08/25 11:17:45;;;;;;;28.30;23.40;;;21.30;99.90;;;;;;5054888;28;20113;-77
2023/08/25 11:20:12;;;;;;;28.30;22.35;;;21.30;99.90;;;;;;5055073;28;20079;-77
2023/08/25 11:22:50;;;;;;;32.85;25.42;;;21.30;99.90;;;;;;5054787;28;20068;-77
2023/08/25 11:25:16;;;;;;;30.92;25.63;;;21.40;99.90;;;;;;5072951;28;20051;-77
2023/08/25 11:27:41;;;;;;;31.83;25.45;;;21.40;99.90;;;;;;5071243;28;20136;-77
2023/08/25 11:30:09;;;;;;;30.67;24.90;;;21.30;99.90;;;;;;5073404;28;20032;-77
2023/08/25 11:32:35;;;;;;;31.77;25.77;;;21.30;99.90;;;;;;5075274;28;20477;-77
2023/08/25 11:35:04;;;;;;;31.30;25.85;;;21.30;99.90;;;;;;5058605;28;20090;-77
2023/08/25 11:37:29;;;;;;;33.95;26.50;;;21.40;99.90;;;;;;5075493;28;20028;-77
2023/08/25 11:39:55;;;;;;;31.42;26.98;;;21.40;99.90;;;;;;5075317;28;20032;-77
2023/08/25 11:42:21;;;;;;;33.67;26.50;;;21.30;99.90;;;;;;5075406;28;20090;-77
2023/08/25 11:44:47;;;;;;;30.42;23.65;;;21.40;99.90;;;;;;5075303;28;20076;-77
2023/08/25 11:47:13;;;;;;;31.15;25.23;;;21.40;99.90;;;;;;5058347;28;20080;-77
2023/08/25 11:49:41;;;;;;;30.17;24.48;;;21.40;99.90;;;;;;5076099;28;20048;-77
2023/08/25 11:52:07;;;;;;;29.23;24.02;;;21.50;99.90;;;;;;5058265;28;20143;-77
2023/08/25 11:54:46;;;;;;;27.67;22.98;;;21.40;99.90;;;;;;5058140;28;20131;-77
2023/08/25 11:57:12;;;;;;;32.30;23.70;;;21.50;99.90;;;;;;5075224;28;20051;-77
2023/08/25 11:59:41;;;;;;;31.42;22.85;;;21.50;99.90;;;;;;5074943;28;20420;-77
2023/08/25 12:02:07;;;;;;;32.60;24.48;;;21.60;99.90;;;;;;5074898;28;20079;-77
2023/08/25 12:04:33;;;;;;;29.23;23.27;;;21.70;99.90;;;;;;5074750;28;20076;-77
2023/08/25 12:07:01;;;;;;;30.88;22.73;;;21.80;99.90;;;;;;5074994;28;20093;-77
2023/08/25 12:09:27;;;;;;;35.70;28.58;;;21.80;99.90;;;;;;5074823;28;20078;-77
2023/08/25 12:11:56;;;;;;;34.35;27.33;;;21.80;99.90;;;;;;5057967;28;20072;-77
2023/08/25 12:14:29;;;;;;;37.35;30.95;;;21.80;99.90;;;;;;5057841;28;20040;-77
2023/08/25 12:16:58;;;;;;;36.03;30.48;;;21.80;99.90;;;;;;5074433;28;20078;-77
2023/08/25 12:19:27;;;;;;;36.80;30.42;;;21.70;99.90;;;;;;5074328;28;20076;-77
2023/08/25 12:21:54;;;;;;;38.88;30.77;;;21.70;99.90;;;;;;5058100;28;20373;-77
2023/08/25 12:24:20;;;;;;;35.28;30.73;;;21.70;99.90;;;;;;5075663;28;20090;-77
2023/08/25 12:26:46;;;;;;;38.95;31.85;;;21.60;99.90;;;;;;5057711;28;20052;-77
2023/08/25 12:29:12;;;;;;;37.88;33.63;;;21.60;99.90;;;;;;5090955;28;20045;-77